Time;durP1;ratioP1;P1;durP2;ratioP2;P2;SDS_P1;SDS_P2;PMS_P1;PMS_P2;Temp;Humidity;BMP_temperature;BMP_pressure;BME280_temperature;BME280_humidity;BME280_pressure;Samples;Min_cycle;Max_cycle;Signal;HPM_P1;HPM_P2
2022/02/13 00:00:24;;;;;;;10.10;4.90;;;0.80;99.90;;;;;;5054638;28;20208;-81
2022/02/13 00:02:49;;;;;;;8.13;4.20;;;0.80;99.90;;;;;;5055141;28;20455;-83
2022/02/13 00:05:15;;;;;;;9.43;4.10;;;0.80;99.90;;;;;;5054916;28;20495;-83
2022/02/13 00:07:41;;;;;;;11.20;4.87;;;0.80;99.90;;;;;;5056074;28;20643;-81
2022/02/13 00:10:09;;;;;;;8.03;4.97;;;0.70;99.90;;;;;;5055560;28;20250;-82
2022/02/13 00:12:36;;;;;;;5.50;4.30;;;0.70;99.90;;;;;;5055940;28;20456;-82
2022/02/13 00:15:02;;;;;;;9.40;4.53;;;0.60;99.90;;;;;;5056024;28;20237;-83
2022/02/13 00:17:27;;;;;;;8.73;4.83;;;0.70;99.90;;;;;;5055952;28;20546;-81
2022/02/13 00:19:53;;;;;;;7.07;4.33;;;0.60;99.90;;;;;;5055426;28;20765;-82
2022/02/13 00:22:19;;;;;;;10.17;4.30;;;0.60;99.90;;;;;;5055796;28;20551;-81
2022/02/13 00:24:45;;;;;;;7.20;4.63;;;0.60;99.90;;;;;;5055855;28;20491;-82
2022/02/13 00:27:11;;;;;;;6.55;4.53;;;0.60;99.90;;;;;;5055715;28;20274;-81
2022/02/13 00:29:37;;;;;;;8.43;4.05;;;0.60;99.90;;;;;;5055354;28;20205;-80
2022/02/13 00:32:04;;;;;;;8.17;4.47;;;0.70;99.90;;;;;;5055366;28;20208;-82
2022/02/13 00:34:31;;;;;;;6.93;4.00;;;0.60;99.90;;;;;;5055426;28;20408;-81
2022/02/13 00:36:57;;;;;;;5.88;4.63;;;0.60;99.90;;;;;;5055714;28;20195;-80
2022/02/13 00:39:23;;;;;;;11.30;4.97;;;0.60;99.90;;;;;;5053836;28;20214;-83
2022/02/13 00:41:48;;;;;;;10.07;5.10;;;0.60;99.90;;;;;;5055442;28;20259;-83
2022/02/13 00:44:14;;;;;;;10.10;4.37;;;0.60;99.90;;;;;;5055554;28;20185;-82
2022/02/13 00:46:40;;;;;;;7.73;4.87;;;0.70;99.90;;;;;;5055244;28;20232;-81
2022/02/13 00:49:05;;;;;;;14.13;4.80;;;0.70;99.90;;;;;;5054758;28;20194;-80
2022/02/13 00:51:31;;;;;;;8.90;5.00;;;0.70;99.90;;;;;;5054429;28;20730;-82
2022/02/13 00:53:58;;;;;;;6.20;4.00;;;0.70;99.90;;;;;;5054202;28;20707;-81
2022/02/13 00:56:24;;;;;;;11.82;5.50;;;0.80;99.90;;;;;;5055078;28;20180;-79
2022/02/13 00:58:50;;;;;;;8.60;5.60;;;0.80;99.90;;;;;;5054800;28;20198;-82
2022/02/13 01:01:15;;;;;;;7.83;3.90;;;0.70;99.90;;;;;;5055137;28;20928;-79
2022/02/13 01:03:41;;;;;;;8.00;5.17;;;0.70;99.90;;;;;;5055079;28;20224;-79
2022/02/13 01:06:07;;;;;;;7.37;4.40;;;0.80;99.90;;;;;;5055030;28;20654;-81
2022/02/13 01:08:33;;;;;;;5.20;3.90;;;0.80;99.90;;;;;;5055049;28;20969;-81
2022/02/13 01:11:00;;;;;;;8.07;4.63;;;0.90;99.90;;;;;;5054656;28;20468;-82
2022/02/13 01:13:27;;;;;;;7.93;4.88;;;0.80;99.90;;;;;;5054892;28;20179;-80
2022/02/13 01:15:53;;;;;;;9.30;4.70;;;0.80;99.90;;;;;;5053527;28;20553;-80
2022/02/13 01:18:19;;;;;;;6.22;4.45;;;0.80;99.90;;;;;;5054860;28;20587;-82
2022/02/13 01:20:45;;;;;;;7.07;3.73;;;0.80;99.90;;;;;;5054584;28;20237;-83
2022/02/13 01:23:11;;;;;;;15.65;5.07;;;0.80;99.90;;;;;;5053704;28;20519;-80
2022/02/13 01:25:37;;;;;;;9.60;4.63;;;0.70;99.90;;;;;;5054657;28;20607;-80
2022/02/13 01:28:03;;;;;;;8.70;4.60;;;0.70;99.90;;;;;;5054597;28;20481;-80
2022/02/13 01:30:29;;;;;;;7.35;4.80;;;0.70;99.90;;;;;;5053978;28;20201;-80
2022/02/13 01:32:54;;;;;;;9.03;4.47;;;0.70;99.90;;;;;;5054367;28;20574;-80
2022/02/13 01:35:20;;;;;;;6.87;4.37;;;0.60;99.90;;;;;;5054460;28;20187;-81
2022/02/13 01:37:46;;;;;;;5.07;4.03;;;0.60;99.90;;;;;;5054396;28;20186;-83
2022/02/13 01:40:12;;;;;;;6.97;4.70;;;0.60;99.90;;;;;;5054011;28;20219;-83
2022/02/13 01:42:38;;;;;;;9.63;5.47;;;0.60;99.90;;;;;;5054102;28;20167;-79
2022/02/13 01:45:04;;;;;;;12.23;5.70;;;0.60;99.90;;;;;;5054275;28;20646;-79
2022/02/13 01:47:32;;;;;;;7.10;4.30;;;0.60;99.90;;;;;;5054048;28;20590;-83
2022/02/13 01:49:58;;;;;;;7.30;4.20;;;0.70;99.90;;;;;;5053875;28;20195;-81
2022/02/13 01:52:25;;;;;;;7.40;3.90;;;0.80;99.90;;;;;;5054063;28;20212;-82
2022/02/13 01:54:51;;;;;;;6.03;4.55;;;0.70;99.90;;;;;;5052765;28;20411;-80
2022/02/13 01:57:16;;;;;;;6.07;4.40;;;0.60;99.90;;;;;;5052647;28;20773;-79
2022/02/13 01:59:42;;;;;;;5.67;4.00;;;0.60;99.90;;;;;;5053888;28;20204;-80
2022/02/13 02:02:08;;;;;;;7.40;4.63;;;0.60;99.90;;;;;;5053690;28;20178;-79
2022/02/13 02:04:34;;;;;;;9.33;4.50;;;0.70;99.90;;;;;;5053771;28;20263;-82
2022/02/13 02:07:01;;;;;;;6.75;3.92;;;0.70;99.90;;;;;;5052773;28;20175;-82
2022/02/13 02:09:27;;;;;;;11.70;4.15;;;0.70;99.90;;;;;;5052085;28;20217;-80
2022/02/13 02:11:53;;;;;;;11.45;4.40;;;0.80;99.90;;;;;;5053680;28;20256;-79
2022/02/13 02:14:19;;;;;;;7.95;4.32;;;0.80;99.90;;;;;;5052504;28;20179;-78
2022/02/13 02:16:45;;;;;;;8.60;3.77;;;0.80;99.90;;;;;;5053706;28;20281;-80
2022/02/13 02:19:11;;;;;;;11.38;4.30;;;0.80;99.90;;;;;;5053209;28;20261;-80
2022/02/13 02:21:41;;;;;;;7.13;4.28;;;0.80;99.90;;;;;;5053679;28;20461;-79
2022/02/13 02:24:14;;;;;;;7.10;4.20;;;0.80;99.90;;;;;;5053556;28;20655;-80
2022/02/13 02:26:40;;;;;;;7.50;4.10;;;0.70;99.90;;;;;;5053524;28;20175;-81
2022/02/13 02:29:06;;;;;;;6.30;4.10;;;0.70;99.90;;;;;;5053102;28;20201;-79
2022/02/13 02:31:32;;;;;;;7.87;4.90;;;0.70;99.90;;;;;;5053355;28;20679;-80
2022/02/13 02:33:58;;;;;;;5.60;4.27;;;0.70;99.90;;;;;;5053406;28;20256;-81
2022/02/13 02:36:23;;;;;;;7.40;4.97;;;0.70;99.90;;;;;;5053296;28;20420;-79
2022/02/13 02:38:49;;;;;;;12.23;4.17;;;0.50;99.90;;;;;;5052910;28;20176;-80
2022/02/13 02:41:15;;;;;;;6.47;4.07;;;0.50;99.90;;;;;;5053219;28;20177;-78
2022/02/13 02:43:42;;;;;;;11.77;4.20;;;0.40;99.90;;;;;;5053195;28;20174;-80
2022/02/13 02:46:09;;;;;;;6.43;3.50;;;0.50;99.90;;;;;;5053327;28;20536;-80
2022/02/13 02:48:34;;;;;;;7.55;4.03;;;0.40;99.90;;;;;;5053065;28;20178;-80
2022/02/13 02:51:01;;;;;;;10.10;4.50;;;0.40;99.90;;;;;;5053014;28;20579;-82
2022/02/13 02:53:27;;;;;;;8.88;4.72;;;0.40;99.90;;;;;;5053040;28;20183;-80
2022/02/13 02:55:53;;;;;;;5.45;3.78;;;0.40;99.90;;;;;;5053169;28;20177;-83
2022/02/13 02:58:19;;;;;;;8.50;4.78;;;0.40;99.90;;;;;;5053158;28;20189;-84
2022/02/13 03:00:45;;;;;;;11.30;4.07;;;0.30;99.90;;;;;;5052881;28;20241;-81
2022/02/13 03:03:10;;;;;;;10.80;3.90;;;0.30;99.90;;;;;;5051874;28;20579;-82
2022/02/13 03:05:36;;;;;;;8.10;4.40;;;0.30;99.90;;;;;;5052032;28;20178;-81
2022/02/13 03:08:02;;;;;;;6.80;3.63;;;0.30;99.90;;;;;;5053078;28;20170;-80
2022/02/13 03:10:28;;;;;;;7.22;4.15;;;0.20;99.90;;;;;;5051242;28;20588;-83
2022/02/13 03:12:54;;;;;;;8.77;4.30;;;0.20;99.90;;;;;;5053300;28;20248;-82
2022/02/13 03:15:19;;;;;;;6.40;3.75;;;0.20;99.90;;;;;;5057041;28;20432;-80
2022/02/13 03:17:46;;;;;;;10.70;4.07;;;0.20;99.90;;;;;;5057394;28;20651;-80
2022/02/13 03:20:12;;;;;;;11.20;4.97;;;0.10;99.90;;;;;;5056710;28;20221;-82
2022/02/13 03:22:37;;;;;;;9.83;5.37;;;0.10;99.90;;;;;;5056981;28;20577;-79
2022/02/13 03:25:03;;;;;;;6.23;3.70;;;0.10;99.90;;;;;;5056874;28;20186;-81
2022/02/13 03:27:29;;;;;;;7.53;3.70;;;0.10;99.90;;;;;;5056800;28;20187;-83
2022/02/13 03:29:54;;;;;;;11.07;4.67;;;0.10;99.90;;;;;;5056768;28;20441;-80
2022/02/13 03:32:20;;;;;;;8.43;5.20;;;0.20;99.90;;;;;;5056698;28;20238;-81
2022/02/13 03:34:46;;;;;;;6.00;3.90;;;0.10;99.90;;;;;;5056755;28;20542;-81
2022/02/13 03:37:12;;;;;;;6.93;4.57;;;0.10;99.90;;;;;;5055454;28;20245;-80
2022/02/13 03:39:38;;;;;;;7.33;4.27;;;0.10;99.90;;;;;;5056185;28;20198;-80
2022/02/13 03:42:05;;;;;;;4.47;3.63;;;0.10;99.90;;;;;;5055189;28;20542;-80
2022/02/13 03:44:30;;;;;;;5.88;4.47;;;0.10;99.90;;;;;;5055437;28;20182;-79
2022/02/13 03:46:56;;;;;;;5.97;4.20;;;0.20;99.90;;;;;;5055315;28;20597;-82
2022/02/13 03:49:22;;;;;;;8.33;4.10;;;0.10;99.90;;;;;;5056285;28;20198;-82
2022/02/13 03:51:49;;;;;;;8.00;3.70;;;0.10;99.90;;;;;;5056382;28;20513;-82
2022/02/13 03:54:15;;;;;;;7.53;4.40;;;0.10;99.90;;;;;;5055222;28;20265;-81
2022/02/13 03:56:40;;;;;;;6.93;3.70;;;0.00;99.90;;;;;;5056506;28;20563;-81
2022/02/13 03:59:06;;;;;;;6.43;3.73;;;0.10;99.90;;;;;;5056045;28;20187;-79
2022/02/13 04:01:32;;;;;;;6.43;4.10;;;0.00;99.90;;;;;;5056244;28;20196;-80
2022/02/13 04:03:57;;;;;;;8.23;4.80;;;0.00;99.90;;;;;;5056484;28;20181;-82
2022/02/13 04:06:23;;;;;;;7.53;5.10;;;0.00;99.90;;;;;;5055263;28;20198;-82
2022/02/13 04:08:48;;;;;;;12.17;5.33;;;0.10;99.90;;;;;;5055700;28;20182;-81
2022/02/13 04:11:14;;;;;;;7.00;4.10;;;0.10;99.90;;;;;;5055973;28;20206;-78
2022/02/13 04:13:41;;;;;;;8.10;4.77;;;0.00;99.90;;;;;;5054642;28;20175;-81
2022/02/13 04:16:07;;;;;;;10.10;5.25;;;0.00;99.90;;;;;;5054786;28;20590;-82
2022/02/13 04:18:32;;;;;;;6.82;4.90;;;0.00;99.90;;;;;;5055926;28;20170;-81
2022/02/13 04:20:58;;;;;;;6.70;4.97;;;0.00;99.90;;;;;;5055622;28;20627;-81
2022/02/13 04:23:23;;;;;;;8.70;4.70;;;0.00;99.90;;;;;;5055707;28;20314;-82
2022/02/13 04:25:49;;;;;;;9.60;4.97;;;0.00;99.90;;;;;;5055524;28;20211;-81
2022/02/13 04:28:15;;;;;;;6.77;4.87;;;0.00;99.90;;;;;;5054499;28;20277;-82
2022/02/13 04:30:40;;;;;;;9.07;4.90;;;0.00;99.90;;;;;;5055222;28;20210;-81
2022/02/13 04:33:06;;;;;;;9.47;4.27;;;0.00;99.90;;;;;;5055715;28;20526;-80
2022/02/13 04:35:33;;;;;;;6.00;4.97;;;0.00;99.90;;;;;;5055617;28;20202;-82
2022/02/13 04:37:59;;;;;;;9.75;4.90;;;0.00;99.90;;;;;;5055522;28;20589;-79
2022/02/13 04:40:25;;;;;;;6.87;4.20;;;0.00;99.90;;;;;;5055191;28;20227;-80
2022/02/13 04:42:51;;;;;;;6.60;4.20;;;-0.10;99.90;;;;;;5055473;28;20416;-80
2022/02/13 04:45:16;;;;;;;7.63;4.87;;;-0.10;99.90;;;;;;5055304;28;20423;-81
2022/02/13 04:47:42;;;;;;;7.00;4.53;;;-0.10;99.90;;;;;;5055450;28;20477;-81
2022/02/13 04:50:08;;;;;;;6.23;4.30;;;-0.10;99.90;;;;;;5054978;28;20689;-82
2022/02/13 04:52:35;;;;;;;9.40;4.95;;;-0.10;99.90;;;;;;5055227;28;20872;-79
2022/02/13 04:55:01;;;;;;;8.68;5.65;;;-0.10;99.90;;;;;;5055529;28;20175;-81
2022/02/13 04:57:27;;;;;;;7.35;4.35;;;-0.10;99.90;;;;;;5055252;28;20175;-81
2022/02/13 04:59:53;;;;;;;9.77;5.10;;;-0.10;99.90;;;;;;5053621;28;20205;-80
2022/02/13 05:02:19;;;;;;;6.05;4.75;;;-0.20;99.90;;;;;;5053762;28;20273;-80
2022/02/13 05:04:45;;;;;;;7.05;4.15;;;-0.20;99.90;;;;;;5055227;28;20179;-83
2022/02/13 05:07:11;;;;;;;10.38;5.88;;;-0.20;99.90;;;;;;5055004;28;20178;-82
2022/02/13 05:09:37;;;;;;;13.17;5.60;;;-0.20;99.90;;;;;;5053405;28;20709;-81
2022/02/13 05:12:03;;;;;;;11.65;5.68;;;-0.30;99.90;;;;;;5054809;28;20581;-81
2022/02/13 05:14:29;;;;;;;7.07;5.13;;;-0.30;99.90;;;;;;5054837;28;20268;-81
2022/02/13 05:16:54;;;;;;;7.23;4.70;;;-0.30;99.90;;;;;;5054899;28;20417;-82
2022/02/13 05:19:20;;;;;;;10.20;4.80;;;-0.30;99.90;;;;;;5054420;28;20226;-82
2022/02/13 05:21:45;;;;;;;8.93;4.90;;;-0.30;99.90;;;;;;5054995;28;20535;-80
2022/02/13 05:24:11;;;;;;;11.03;4.63;;;-0.40;99.90;;;;;;5054750;28;20186;-81
2022/02/13 05:26:37;;;;;;;7.83;4.63;;;-0.40;99.90;;;;;;5054628;28;20187;-82
2022/02/13 05:29:03;;;;;;;6.27;4.77;;;-0.40;99.90;;;;;;5054435;28;20702;-81
2022/02/13 05:31:31;;;;;;;8.02;5.15;;;-0.50;99.90;;;;;;5054474;28;20457;-81
2022/02/13 05:33:59;;;;;;;10.13;5.28;;;-0.50;99.90;;;;;;5054521;28;20174;-83
2022/02/13 05:36:26;;;;;;;9.00;4.35;;;-0.50;99.90;;;;;;5052341;28;20719;-81
2022/02/13 05:38:51;;;;;;;8.02;5.50;;;-0.50;99.90;;;;;;5053988;28;20253;-81
2022/02/13 05:41:17;;;;;;;6.10;5.00;;;-0.50;99.90;;;;;;5054424;28;20321;-81
2022/02/13 05:43:43;;;;;;;6.27;4.93;;;-0.50;99.90;;;;;;5054317;28;20190;-79
2022/02/13 05:46:09;;;;;;;6.10;4.60;;;-0.50;99.90;;;;;;5054245;28;20181;-80
2022/02/13 05:48:35;;;;;;;8.30;4.77;;;-0.50;99.90;;;;;;5053856;28;20424;-82
2022/02/13 05:51:01;;;;;;;7.17;4.80;;;-0.50;99.90;;;;;;5054097;28;20885;-80
2022/02/13 05:53:27;;;;;;;6.70;4.82;;;-0.40;99.90;;;;;;5054277;28;20208;-80
2022/02/13 05:55:53;;;;;;;7.35;4.78;;;-0.40;99.90;;;;;;5054117;28;20190;-81
2022/02/13 05:58:19;;;;;;;7.17;4.50;;;-0.50;99.90;;;;;;5054007;28;20178;-79
2022/02/13 06:00:44;;;;;;;7.87;4.77;;;-0.50;99.90;;;;;;5053573;28;20200;-82
2022/02/13 06:03:10;;;;;;;6.97;4.43;;;-0.40;99.90;;;;;;5053906;28;20182;-83
2022/02/13 06:05:37;;;;;;;8.23;4.30;;;-0.50;99.90;;;;;;5053873;28;20416;-81
2022/02/13 06:08:02;;;;;;;6.28;4.72;;;-0.50;99.90;;;;;;5054095;28;21030;-82
2022/02/13 06:10:28;;;;;;;8.57;5.03;;;-0.40;99.90;;;;;;5053575;28;20219;-82
2022/02/13 06:12:54;;;;;;;11.07;4.87;;;-0.40;99.90;;;;;;5053925;28;20206;-81
2022/02/13 06:15:19;;;;;;;7.87;4.63;;;-0.40;99.90;;;;;;5053944;28;20506;-80
2022/02/13 06:17:45;;;;;;;6.30;4.77;;;-0.40;99.90;;;;;;5053909;28;20178;-82
2022/02/13 06:20:11;;;;;;;11.13;5.67;;;-0.50;99.90;;;;;;5052162;28;20746;-80
2022/02/13 06:22:37;;;;;;;8.23;5.13;;;-0.50;99.90;;;;;;5053552;28;20532;-81
2022/02/13 06:25:03;;;;;;;7.13;4.80;;;-0.50;99.90;;;;;;5053614;28;20417;-83
2022/02/13 06:27:28;;;;;;;7.03;4.15;;;-0.50;99.90;;;;;;5035713;28;20440;-82
2022/02/13 06:29:54;;;;;;;7.50;5.10;;;-0.50;99.90;;;;;;5051808;28;20234;-81
2022/02/13 06:32:19;;;;;;;12.43;5.23;;;-0.50;99.90;;;;;;5053341;28;20696;-83
2022/02/13 06:34:46;;;;;;;6.20;4.17;;;-0.50;99.90;;;;;;5053344;28;20176;-83
2022/02/13 06:37:12;;;;;;;5.82;3.95;;;-0.50;99.90;;;;;;5053363;28;20170;-79
2022/02/13 06:39:38;;;;;;;9.07;4.60;;;-0.60;99.90;;;;;;5051731;28;20230;-80
2022/02/13 06:42:04;;;;;;;7.30;4.53;;;-0.50;99.90;;;;;;5053162;28;20209;-82
2022/02/13 06:44:30;;;;;;;7.90;6.15;;;-0.50;99.90;;;;;;5053209;28;20265;-80
2022/02/13 06:46:55;;;;;;;6.43;5.13;;;-0.50;99.90;;;;;;5052803;28;20273;-81
2022/02/13 06:49:21;;;;;;;8.17;4.80;;;-0.40;99.90;;;;;;5050964;28;20209;-82
2022/02/13 06:51:46;;;;;;;6.27;4.70;;;-0.40;99.90;;;;;;5051990;28;20644;-80
2022/02/13 06:54:12;;;;;;;8.20;5.47;;;-0.40;99.90;;;;;;5053133;28;20190;-81
2022/02/13 06:56:38;;;;;;;8.40;4.87;;;-0.30;99.90;;;;;;5053192;28;20173;-81
2022/02/13 06:59:04;;;;;;;5.97;4.30;;;-0.30;99.90;;;;;;5052961;28;20808;-81
2022/02/13 07:01:30;;;;;;;8.40;5.28;;;-0.20;99.90;;;;;;5051884;28;20182;-79
2022/02/13 07:03:55;;;;;;;6.90;4.93;;;-0.20;99.90;;;;;;5053179;28;20251;-81
2022/02/13 07:06:21;;;;;;;6.50;4.20;;;-0.10;99.90;;;;;;5053146;28;20452;-80
2022/02/13 07:08:47;;;;;;;9.47;5.00;;;-0.10;99.90;;;;;;5052667;28;20635;-82
2022/02/13 07:11:12;;;;;;;6.70;4.10;;;-0.10;99.90;;;;;;5052653;28;20219;-82
2022/02/13 07:13:38;;;;;;;6.27;4.10;;;-0.10;99.90;;;;;;5052895;28;20218;-81
2022/02/13 07:16:05;;;;;;;7.73;4.90;;;0.00;99.90;;;;;;5052928;28;20224;-80
2022/02/13 07:18:30;;;;;;;4.90;4.00;;;0.00;99.90;;;;;;5052864;28;20604;-80
2022/02/13 07:20:56;;;;;;;6.57;4.40;;;0.00;99.90;;;;;;5051354;28;20359;-80
2022/02/13 07:23:21;;;;;;;6.97;4.90;;;0.00;99.90;;;;;;5052968;28;20187;-79
2022/02/13 07:25:48;;;;;;;7.60;4.87;;;0.10;99.90;;;;;;5052827;28;20339;-78
2022/02/13 07:30:57;;;;;;;6.60;4.50;;;0.20;99.90;;;;;;5052449;28;20555;-79
2022/02/13 07:33:23;;;;;;;6.53;4.30;;;0.20;99.90;;;;;;5034890;28;20175;-79
2022/02/13 07:35:49;;;;;;;7.73;4.03;;;0.20;99.90;;;;;;5052885;28;20181;-79
2022/02/13 07:38:14;;;;;;;5.00;3.70;;;0.30;99.90;;;;;;5053022;28;20180;-80
2022/02/13 07:40:40;;;;;;;8.27;4.10;;;0.40;99.90;;;;;;5052348;28;20190;-80
2022/02/13 07:43:06;;;;;;;6.70;4.03;;;0.60;99.90;;;;;;5052619;28;20176;-82
2022/02/13 07:45:32;;;;;;;7.88;4.80;;;0.60;99.90;;;;;;5051329;28;20257;-80
2022/02/13 07:47:57;;;;;;;7.10;5.40;;;0.70;99.90;;;;;;5051471;28;20258;-82
2022/02/13 07:50:23;;;;;;;7.23;5.27;;;0.80;99.90;;;;;;5050952;28;20202;-80
2022/02/13 07:52:49;;;;;;;9.57;4.80;;;0.90;99.90;;;;;;5052644;28;20203;-80
2022/02/13 07:55:16;;;;;;;9.77;5.20;;;1.00;99.90;;;;;;5052563;28;20170;-80
2022/02/13 07:57:42;;;;;;;9.50;5.60;;;1.10;99.90;;;;;;5052528;28;20260;-79
2022/02/13 08:00:09;;;;;;;13.07;6.00;;;1.10;99.90;;;;;;5054623;28;20220;-79
2022/02/13 08:02:36;;;;;;;9.20;5.30;;;1.30;99.90;;;;;;5056347;28;20425;-79
2022/02/13 08:05:02;;;;;;;11.38;6.90;;;1.30;99.90;;;;;;5056158;28;20524;-80
2022/02/13 08:07:28;;;;;;;8.60;6.30;;;1.40;99.90;;;;;;5056107;28;20229;-82
2022/02/13 08:09:53;;;;;;;10.47;6.70;;;1.50;99.90;;;;;;5055568;28;20323;-82
2022/02/13 08:12:19;;;;;;;16.20;7.80;;;1.70;99.90;;;;;;5055828;28;20692;-81
2022/02/13 08:14:44;;;;;;;10.83;6.37;;;1.80;99.90;;;;;;5056067;28;20186;-83
2022/02/13 08:17:10;;;;;;;9.03;5.43;;;1.90;99.90;;;;;;5055937;28;20655;-82
2022/02/13 08:19:36;;;;;;;7.17;5.10;;;2.10;99.90;;;;;;5055448;28;20554;-82
2022/02/13 08:22:06;;;;;;;7.70;5.93;;;2.10;99.90;;;;;;5055881;28;20185;-82
2022/02/13 08:24:33;;;;;;;7.45;5.10;;;2.30;99.90;;;;;;5056160;28;20194;-81
2022/02/13 08:26:59;;;;;;;7.07;4.93;;;2.30;99.90;;;;;;5054646;28;20191;-81
2022/02/13 08:29:25;;;;;;;10.07;5.82;;;2.40;99.90;;;;;;5055434;28;20194;-82
2022/02/13 08:31:51;;;;;;;7.65;6.07;;;2.70;99.90;;;;;;5055527;28;20209;-82
2022/02/13 08:34:17;;;;;;;8.33;5.20;;;2.70;99.90;;;;;;5054417;28;20654;-80
2022/02/13 08:36:42;;;;;;;7.87;5.00;;;2.70;99.90;;;;;;5054437;28;20643;-80
2022/02/13 08:39:08;;;;;;;5.90;4.03;;;2.80;99.90;;;;;;5054105;28;20202;-79
2022/02/13 08:41:35;;;;;;;6.40;4.80;;;2.90;99.90;;;;;;5055535;28;20185;-82
2022/02/13 08:44:01;;;;;;;6.07;4.93;;;3.00;99.90;;;;;;5055328;28;20424;-81
2022/02/13 08:46:27;;;;;;;7.90;4.50;;;3.10;99.90;;;;;;5055386;28;20178;-81
2022/02/13 08:48:52;;;;;;;6.47;4.27;;;3.20;99.90;;;;;;5053914;28;20420;-79
2022/02/13 08:51:18;;;;;;;5.20;3.87;;;3.30;99.90;;;;;;5055301;28;20233;-80
2022/02/13 08:53:43;;;;;;;4.20;3.33;;;3.30;99.90;;;;;;5055265;28;20174;-81
2022/02/13 08:56:09;;;;;;;6.53;4.40;;;3.60;99.90;;;;;;5053926;28;20177;-80
2022/02/13 08:58:35;;;;;;;5.10;4.33;;;3.70;99.90;;;;;;5054877;28;20187;-81
2022/02/13 09:01:00;;;;;;;4.93;3.97;;;3.90;99.90;;;;;;5054027;28;20221;-79
2022/02/13 09:03:27;;;;;;;6.53;4.00;;;3.90;99.90;;;;;;5054326;28;20201;-82
2022/02/13 09:05:53;;;;;;;8.32;4.05;;;4.10;99.90;;;;;;5055048;28;20181;-82
2022/02/13 09:08:19;;;;;;;5.32;3.97;;;4.20;99.90;;;;;;5055178;28;20241;-80
2022/02/13 09:10:45;;;;;;;4.80;3.70;;;4.30;99.90;;;;;;5053689;28;20244;-81
2022/02/13 09:13:11;;;;;;;4.90;3.60;;;4.30;99.90;;;;;;5055111;28;20252;-81
2022/02/13 09:15:37;;;;;;;7.85;4.10;;;4.50;99.90;;;;;;5055082;28;20292;-80
2022/02/13 09:18:03;;;;;;;6.78;3.67;;;4.60;99.90;;;;;;5053614;28;20189;-81
2022/02/13 09:20:29;;;;;;;6.10;4.20;;;4.80;99.90;;;;;;5054353;28;20202;-79
2022/02/13 09:22:54;;;;;;;8.83;3.90;;;5.00;99.90;;;;;;5054911;28;20176;-78
2022/02/13 09:25:20;;;;;;;5.10;3.60;;;4.90;99.90;;;;;;5054747;28;20212;-80
2022/02/13 09:27:46;;;;;;;6.70;3.53;;;4.90;99.90;;;;;;5054785;28;20323;-82
2022/02/13 09:30:12;;;;;;;4.70;4.20;;;5.00;99.90;;;;;;5054210;28;20198;-81
2022/02/13 09:32:39;;;;;;;4.07;3.40;;;5.00;99.90;;;;;;5054589;28;20477;-82
2022/02/13 09:35:07;;;;;;;7.60;4.05;;;5.10;99.90;;;;;;5054514;28;20424;-80
2022/02/13 09:37:33;;;;;;;4.75;3.80;;;5.20;99.90;;;;;;5054523;28;20269;-81
2022/02/13 09:40:00;;;;;;;7.32;4.30;;;5.30;99.90;;;;;;5054189;28;20291;-80
2022/02/13 09:42:26;;;;;;;5.63;4.45;;;5.50;99.90;;;;;;5053103;28;20696;-79
2022/02/13 09:44:52;;;;;;;4.95;3.70;;;5.60;99.90;;;;;;5054357;28;20265;-80
2022/02/13 09:47:19;;;;;;;7.03;4.00;;;5.80;99.90;;;;;;5054277;28;20178;-82
2022/02/13 09:49:45;;;;;;;5.47;4.25;;;5.90;99.90;;;;;;5053888;28;20448;-82
2022/02/13 09:52:13;;;;;;;5.17;4.03;;;5.90;99.90;;;;;;5036122;28;20219;-85
2022/02/13 09:54:39;;;;;;;6.43;5.03;;;6.00;99.90;;;;;;5052848;28;20529;-83
2022/02/13 09:59:58;;;;;;;5.97;4.03;;;6.50;99.90;;;;;;5054025;28;20731;-82
2022/02/13 10:02:40;;;;;;;4.13;3.45;;;6.80;99.90;;;;;;5053975;28;20172;-79
2022/02/13 10:05:09;;;;;;;4.90;3.95;;;7.10;99.90;;;;;;5053940;28;20170;-82
2022/02/13 10:07:36;;;;;;;15.60;4.20;;;7.40;99.90;;;;;;5053909;28;20240;-85
2022/02/13 10:10:05;;;;;;;4.53;3.75;;;7.40;99.90;;;;;;5052089;28;20221;-84
2022/02/13 10:12:44;;;;;;;4.25;3.55;;;7.60;99.90;;;;;;5053538;28;20204;-85
2022/02/13 10:15:22;;;;;;;4.05;3.35;;;7.40;99.90;;;;;;5052711;28;20165;-85
2022/02/13 10:18:02;;;;;;;5.25;3.60;;;7.60;99.90;;;;;;5053828;28;20166;-85
2022/02/13 10:20:39;;;;;;;6.28;3.78;;;8.00;99.90;;;;;;5051907;28;20201;-82
2022/02/13 10:23:11;;;;;;;3.42;3.13;;;8.10;99.90;;;;;;5053740;28;20286;-84
2022/02/13 10:25:38;;;;;;;8.50;3.58;;;8.00;99.90;;;;;;5053614;28;20182;-83
2022/02/13 10:28:15;;;;;;;5.67;3.27;;;8.00;99.90;;;;;;5052300;28;20191;-86
2022/02/13 10:30:46;;;;;;;3.77;3.40;;;8.40;99.90;;;;;;5052617;28;20454;-85
2022/02/13 10:33:22;;;;;;;6.27;4.43;;;8.60;99.90;;;;;;5052017;28;20468;-83
2022/02/13 10:36:07;;;;;;;5.30;3.80;;;8.60;99.90;;;;;;5053584;28;20444;-80
2022/02/13 10:38:36;;;;;;;3.70;3.23;;;8.70;99.90;;;;;;5053276;28;20408;-82
2022/02/13 10:41:13;;;;;;;5.67;3.70;;;8.70;99.90;;;;;;5053305;28;20435;-85
2022/02/13 10:43:53;;;;;;;4.07;3.67;;;9.20;99.90;;;;;;5053668;28;20416;-82
2022/02/13 10:46:20;;;;;;;5.80;3.70;;;9.30;99.90;;;;;;5053332;28;20397;-81
2022/02/13 10:48:46;;;;;;;11.43;7.97;;;9.40;99.90;;;;;;5052662;28;20816;-83
2022/02/13 10:51:13;;;;;;;5.53;3.93;;;9.40;99.90;;;;;;5053113;28;20606;-85
2022/02/13 10:53:44;;;;;;;4.40;3.73;;;9.80;99.90;;;;;;5052540;28;20778;-83
2022/02/13 10:56:10;;;;;;;9.63;3.33;;;10.10;99.90;;;;;;5048094;28;20438;-82
2022/02/13 10:58:37;;;;;;;4.90;3.40;;;10.40;99.90;;;;;;5040496;28;20418;-82
2022/02/13 11:01:05;;;;;;;4.07;2.83;;;10.40;99.90;;;;;;5044314;28;20783;-83
2022/02/13 11:03:35;;;;;;;3.57;2.63;;;10.60;99.90;;;;;;5035249;28;20512;-82
2022/02/13 11:06:02;;;;;;;5.43;2.87;;;11.10;99.90;;;;;;5033131;28;20419;-84
2022/02/13 11:08:32;;;;;;;4.20;2.77;;;11.10;99.90;;;;;;5033665;28;20845;-82
2022/02/13 11:10:58;;;;;;;3.83;2.30;;;11.10;99.90;;;;;;5033429;28;20463;-83
2022/02/13 11:13:28;;;;;;;3.37;2.30;;;11.30;99.90;;;;;;5033401;28;20413;-83
2022/02/13 11:15:54;;;;;;;5.13;2.70;;;11.10;99.90;;;;;;5033571;28;20887;-84
2022/02/13 11:18:24;;;;;;;4.30;2.27;;;11.20;99.90;;;;;;5033308;28;20433;-84
2022/02/13 11:20:52;;;;;;;4.60;2.40;;;11.50;99.90;;;;;;5034084;28;20863;-84
2022/02/13 11:23:29;;;;;;;5.23;2.20;;;12.00;99.90;;;;;;5034118;28;20783;-84
2022/02/13 11:25:57;;;;;;;5.20;3.07;;;11.70;99.90;;;;;;5033302;28;20554;-84
2022/02/13 11:28:52;;;;;;;5.60;2.17;;;11.80;99.90;;;;;;5034686;28;20425;-83
2022/02/13 11:31:39;;;;;;;3.40;2.40;;;11.80;99.90;;;;;;5032474;28;20544;-84
2022/02/13 11:34:10;;;;;;;4.30;2.60;;;11.70;99.90;;;;;;5033874;28;20504;-84
2022/02/13 11:36:42;;;;;;;3.47;2.27;;;11.70;99.90;;;;;;5037869;28;20413;-84
2022/02/13 11:39:08;;;;;;;5.27;2.77;;;11.40;99.90;;;;;;5037463;28;20430;-83
2022/02/13 11:41:46;;;;;;;2.50;2.30;;;11.40;99.90;;;;;;5037443;28;20974;-83
2022/02/13 11:44:37;;;;;;;3.77;2.90;;;11.80;99.90;;;;;;5037061;28;20417;-83
2022/02/13 11:47:04;;;;;;;4.37;2.60;;;11.90;99.90;;;;;;5037998;28;20410;-84
2022/02/13 11:49:30;;;;;;;6.87;3.00;;;12.00;99.90;;;;;;5038730;28;20433;-84
2022/02/13 11:51:58;;;;;;;6.90;4.00;;;12.00;99.90;;;;;;5039853;28;20445;-84
2022/02/13 11:54:40;;;;;;;4.80;3.03;;;12.10;99.90;;;;;;5040729;28;20421;-83
2022/02/13 11:57:08;;;;;;;3.90;2.30;;;12.10;99.90;;;;;;5039936;28;20445;-84
2022/02/13 11:59:55;;;;;;;3.60;2.43;;;12.00;99.90;;;;;;5042139;28;20440;-84
2022/02/13 12:02:41;;;;;;;3.17;2.57;;;12.10;99.90;;;;;;5039708;28;20420;-84
2022/02/13 12:05:10;;;;;;;5.10;3.00;;;12.50;99.90;;;;;;5037641;28;20421;-85
2022/02/13 12:07:45;;;;;;;4.73;2.77;;;12.50;99.90;;;;;;5042154;28;20416;-85
2022/02/13 12:10:13;;;;;;;4.97;2.47;;;12.90;99.90;;;;;;5037414;28;20957;-84
2022/02/13 12:12:42;;;;;;;3.80;2.80;;;13.10;99.90;;;;;;5041988;28;20459;-84
2022/02/13 12:15:08;;;;;;;3.77;2.80;;;13.60;99.90;;;;;;5040885;28;20409;-85
2022/02/13 12:17:34;;;;;;;4.37;2.97;;;13.30;99.90;;;;;;5039960;28;20509;-83
2022/02/13 12:20:05;;;;;;;5.80;2.80;;;13.20;99.90;;;;;;5040743;28;20441;-84
2022/02/13 12:22:32;;;;;;;5.00;2.60;;;13.30;99.90;;;;;;5037739;28;20257;-83
2022/02/13 12:24:59;;;;;;;4.87;2.80;;;13.30;99.90;;;;;;5040344;28;20426;-84
2022/02/13 12:27:25;;;;;;;3.80;2.93;;;13.50;99.90;;;;;;5038498;28;20410;-84
2022/02/13 12:29:55;;;;;;;5.13;2.63;;;13.50;99.90;;;;;;5037937;28;20434;-84
2022/02/13 12:32:26;;;;;;;5.77;2.70;;;13.40;99.90;;;;;;5037912;28;20461;-85
2022/02/13 12:34:56;;;;;;;2.67;2.13;;;13.60;99.90;;;;;;5038803;28;20470;-85
2022/02/13 12:37:43;;;;;;;4.53;2.80;;;14.10;99.90;;;;;;5038186;28;20418;-83
2022/02/13 12:40:19;;;;;;;3.37;2.80;;;14.30;99.90;;;;;;5038989;28;20430;-82
2022/02/13 12:42:52;;;;;;;3.30;2.47;;;14.30;99.90;;;;;;5037084;28;20936;-83
2022/02/13 12:45:20;;;;;;;4.50;2.30;;;14.30;99.90;;;;;;5037832;28;20508;-82
2022/02/13 12:47:51;;;;;;;4.33;2.90;;;14.30;99.90;;;;;;5039618;28;20479;-84
2022/02/13 12:50:19;;;;;;;5.10;2.93;;;14.00;99.90;;;;;;5039123;28;20437;-81
2022/02/13 12:52:45;;;;;;;3.77;2.93;;;14.10;99.90;;;;;;5035770;28;20535;-82
2022/02/13 12:55:16;;;;;;;5.67;3.20;;;14.30;99.90;;;;;;5036531;28;20415;-83
2022/02/13 12:57:52;;;;;;;3.83;2.73;;;14.40;99.90;;;;;;5037035;28;20429;-84